createdAt,value
2018-05-15T00:01:15.635Z,17.20
2018-05-15T00:03:43.193Z,17.10
2018-05-15T00:06:11.494Z,17.00
2018-05-15T00:08:39.053Z,16.90
2018-05-15T00:11:06.606Z,17.00
2018-05-15T00:13:34.921Z,16.80
2018-05-15T00:16:02.440Z,16.70
2018-05-15T00:18:30.760Z,16.70
2018-05-15T00:20:58.293Z,16.60
2018-05-15T00:23:25.847Z,16.60
2018-05-15T00:25:54.140Z,16.60
2018-05-15T00:28:21.695Z,16.50
2018-05-15T00:30:49.233Z,16.50
2018-05-15T00:33:17.545Z,16.50
2018-05-15T00:35:45.074Z,16.40
2018-05-15T00:38:13.453Z,16.40
2018-05-15T00:40:41.785Z,16.30
2018-05-15T00:43:09.313Z,16.30
2018-05-15T00:45:36.842Z,16.30
2018-05-15T00:48:05.169Z,16.20
2018-05-15T00:50:32.688Z,16.10
2018-05-15T00:53:01.011Z,16.00
2018-05-15T00:55:40.273Z,16.00
2018-05-15T00:58:07.829Z,16.00
2018-05-15T01:00:35.356Z,16.00
2018-05-15T01:03:02.906Z,16.00
2018-05-15T01:05:30.429Z,16.00
2018-05-15T01:07:57.976Z,15.90
2018-05-15T01:10:25.509Z,15.90
2018-05-15T01:12:53.061Z,15.80
2018-05-15T01:15:20.600Z,15.80
2018-05-15T01:17:48.157Z,15.70
2018-05-15T01:20:15.691Z,15.60
2018-05-15T01:22:43.240Z,15.50
2018-05-15T01:25:10.769Z,15.50
2018-05-15T01:27:38.326Z,15.40
2018-05-15T01:30:05.862Z,15.40
2018-05-15T01:32:33.433Z,15.40
2018-05-15T01:35:00.955Z,15.40
2018-05-15T01:37:29.253Z,15.30
2018-05-15T01:39:56.814Z,15.30
2018-05-15T01:42:24.340Z,15.30
2018-05-15T01:44:51.903Z,15.30
2018-05-15T01:47:19.433Z,15.30
2018-05-15T01:49:46.995Z,15.20
2018-05-15T01:52:14.538Z,15.20
2018-05-15T01:54:42.106Z,15.20
2018-05-15T01:57:09.652Z,15.10
2018-05-15T01:59:37.221Z,15.00
2018-05-15T02:02:04.749Z,15.00
2018-05-15T02:04:33.077Z,14.90
2018-05-15T02:07:00.608Z,14.90
2018-05-15T02:09:28.174Z,14.90
2018-05-15T02:11:55.709Z,14.90
2018-05-15T02:14:24.029Z,14.80
2018-05-15T02:16:51.561Z,14.70
2018-05-15T02:19:19.113Z,14.70
2018-05-15T02:21:46.653Z,14.70
2018-05-15T02:24:14.974Z,14.60
2018-05-15T02:26:42.509Z,14.50
2018-05-15T02:29:10.078Z,14.50
2018-05-15T02:31:37.611Z,14.50
2018-05-15T02:34:05.938Z,14.40
2018-05-15T02:36:33.467Z,14.40
2018-05-15T02:39:01.024Z,14.40
2018-05-15T02:41:29.318Z,14.30
2018-05-15T02:43:56.877Z,14.20
2018-05-15T02:46:24.404Z,14.30
2018-05-15T02:48:51.961Z,14.30
2018-05-15T02:51:20.267Z,14.20
2018-05-15T02:53:47.821Z,14.10
2018-05-15T02:56:15.364Z,14.20
2018-05-15T02:58:43.688Z,14.20
2018-05-15T03:01:11.212Z,14.10
2018-05-15T03:03:39.541Z,14.10
2018-05-15T03:06:07.070Z,14.00
2018-05-15T03:08:34.625Z,14.10
2018-05-15T03:11:02.157Z,14.10
2018-05-15T03:13:29.692Z,14.10
2018-05-15T03:15:57.251Z,14.00
2018-05-15T03:18:24.785Z,14.00
2018-05-15T03:20:52.361Z,14.00
2018-05-15T03:23:19.891Z,14.00
2018-05-15T03:25:47.451Z,14.00
2018-05-15T03:28:14.985Z,14.00
2018-05-15T03:30:43.318Z,13.90
2018-05-15T03:33:10.850Z,13.90
2018-05-15T03:35:38.401Z,13.90
2018-05-15T03:38:05.930Z,13.90
2018-05-15T03:40:33.485Z,13.90
2018-05-15T03:43:01.013Z,13.90
2018-05-15T03:45:28.576Z,13.80
2018-05-15T03:47:56.103Z,13.80
2018-05-15T03:50:23.669Z,13.80
2018-05-15T03:52:51.193Z,13.80
2018-05-15T03:55:18.749Z,13.70
2018-05-15T03:57:46.269Z,13.70
2018-05-15T04:00:25.656Z,13.70
2018-05-15T04:03:05.772Z,13.70
2018-05-15T04:05:46.029Z,13.60
2018-05-15T04:08:14.344Z,13.70
2018-05-15T04:10:41.904Z,13.70
2018-05-15T04:13:09.438Z,13.70
2018-05-15T04:15:36.988Z,13.70
2018-05-15T04:18:04.509Z,13.70
2018-05-15T04:20:32.065Z,13.70
2018-05-15T04:23:00.356Z,13.80
2018-05-15T04:25:27.912Z,13.80
2018-05-15T04:27:55.450Z,13.80
2018-05-15T04:30:23.783Z,13.90
2018-05-15T04:32:51.308Z,13.80
2018-05-15T04:35:18.994Z,13.90
2018-05-15T04:37:46.407Z,13.90
2018-05-15T04:40:14.730Z,13.90
2018-05-15T04:42:42.254Z,13.90
2018-05-15T04:45:10.580Z,14.00
2018-05-15T04:47:38.137Z,14.00
2018-05-15T04:50:05.692Z,14.10
2018-05-15T04:52:33.212Z,14.10
2018-05-15T04:55:01.541Z,14.20
2018-05-15T04:57:29.083Z,14.20
2018-05-15T04:59:56.613Z,14.30
2018-05-15T05:02:24.937Z,14.30
2018-05-15T05:04:52.462Z,14.30
2018-05-15T05:07:21.006Z,14.40
2018-05-15T05:09:48.616Z,14.50
2018-05-15T05:12:16.169Z,14.50
2018-05-15T05:14:43.701Z,14.50
2018-05-15T05:17:11.261Z,14.50
2018-05-15T05:19:39.556Z,14.60
2018-05-15T05:22:07.882Z,14.70
2018-05-15T05:24:35.426Z,14.70
2018-05-15T05:27:03.051Z,14.80
2018-05-15T05:29:30.529Z,14.80
2018-05-15T05:31:58.089Z,14.90
2018-05-15T05:34:25.623Z,15.00
2018-05-15T05:36:54.046Z,15.10
2018-05-15T05:39:21.583Z,15.30
2018-05-15T05:41:49.133Z,15.40
2018-05-15T05:44:17.442Z,15.60
2018-05-15T05:46:45.772Z,15.60
2018-05-15T05:49:13.301Z,15.60
2018-05-15T05:51:40.856Z,15.70
2018-05-15T05:54:08.449Z,15.70
2018-05-15T05:56:36.014Z,15.80
2018-05-15T05:59:03.537Z,15.90
2018-05-15T06:01:31.089Z,16.00
2018-05-15T06:03:58.623Z,16.00
2018-05-15T06:06:26.188Z,16.10
2018-05-15T06:08:53.728Z,16.10
2018-05-15T06:11:22.041Z,16.20
2018-05-15T06:13:49.573Z,16.10
2018-05-15T06:16:17.884Z,16.30
2018-05-15T06:18:45.413Z,16.30
2018-05-15T06:21:12.964Z,16.30
2018-05-15T06:23:41.253Z,16.40
2018-05-15T06:26:09.572Z,16.50
2018-05-15T06:28:37.104Z,16.40
2018-05-15T06:31:04.657Z,16.60
2018-05-15T06:33:32.208Z,16.70
2018-05-15T06:36:00.496Z,16.70
2018-05-15T06:38:29.020Z,16.70
2018-05-15T06:40:57.393Z,16.70
2018-05-15T06:43:24.960Z,16.70
2018-05-15T06:45:52.485Z,16.80
2018-05-15T06:48:20.042Z,16.80
2018-05-15T06:50:47.569Z,16.80
2018-05-15T06:53:15.129Z,16.90
2018-05-15T06:55:42.667Z,16.90
2018-05-15T06:58:10.221Z,17.00
2018-05-15T07:00:37.753Z,17.10
2018-05-15T07:03:05.305Z,17.20
2018-05-15T07:05:32.837Z,17.30
2018-05-15T07:08:01.160Z,17.50
2018-05-15T07:10:28.682Z,17.40
2018-05-15T07:12:57.009Z,17.60
2018-05-15T07:15:24.536Z,17.50
2018-05-15T07:17:52.089Z,17.60
2018-05-15T07:20:19.621Z,17.70
2018-05-15T07:22:47.177Z,17.70
2018-05-15T07:25:14.709Z,17.70
2018-05-15T07:27:42.261Z,17.80
2018-05-15T07:30:09.785Z,17.80
2018-05-15T07:32:38.100Z,18.00
2018-05-15T07:35:05.642Z,17.90
2018-05-15T07:37:33.213Z,18.00
2018-05-15T07:40:00.745Z,18.10
2018-05-15T07:42:29.107Z,18.30
2018-05-15T07:44:56.618Z,18.30
2018-05-15T07:47:24.176Z,18.40
2018-05-15T07:49:51.705Z,18.50
2018-05-15T07:52:19.260Z,18.60
2018-05-15T07:54:47.557Z,18.80
2018-05-15T07:57:15.111Z,18.80
2018-05-15T07:59:42.645Z,18.90
2018-05-15T08:02:11.038Z,19.10
2018-05-15T08:04:38.518Z,19.00
2018-05-15T08:07:06.088Z,19.10
2018-05-15T08:09:33.620Z,19.20
2018-05-15T08:12:01.913Z,19.40
2018-05-15T08:14:29.468Z,19.30
2018-05-15T08:16:57.010Z,19.50
2018-05-15T08:19:25.329Z,19.60
2018-05-15T08:21:52.855Z,19.60
2018-05-15T08:24:21.176Z,19.80
2018-05-15T08:26:48.693Z,19.70
2018-05-15T08:29:17.003Z,19.90
2018-05-15T08:31:44.523Z,19.90
2018-05-15T08:34:12.837Z,20.10
2018-05-15T08:36:40.373Z,20.10
2018-05-15T08:39:07.932Z,20.20
2018-05-15T08:41:35.462Z,20.40
2018-05-15T08:44:03.793Z,20.50
2018-05-15T08:46:31.315Z,20.50
2018-05-15T08:48:59.636Z,20.70
2018-05-15T08:51:27.232Z,20.60
2018-05-15T08:53:54.728Z,20.70
2018-05-15T08:56:22.257Z,20.80
2018-05-15T08:58:49.808Z,20.90
2018-05-15T09:01:17.350Z,21.00
2018-05-15T09:03:44.906Z,21.00
2018-05-15T09:06:12.434Z,21.10
2018-05-15T09:08:39.980Z,21.30
2018-05-15T09:11:08.273Z,21.50
2018-05-15T09:13:35.823Z,21.40
2018-05-15T09:16:03.348Z,21.60
2018-05-15T09:18:30.896Z,21.80
2018-05-15T09:20:58.420Z,22.00
2018-05-15T09:23:25.973Z,22.20
2018-05-15T09:25:53.504Z,22.40
2018-05-15T09:28:21.825Z,22.70
2018-05-15T09:30:49.349Z,22.70
2018-05-15T09:33:17.677Z,23.00
2018-05-15T09:35:45.201Z,23.00
2018-05-15T09:38:12.748Z,23.20
2018-05-15T09:40:41.041Z,23.30
2018-05-15T09:43:08.565Z,23.20
2018-05-15T09:45:36.127Z,23.40
2018-05-15T09:48:03.649Z,23.50
2018-05-15T09:50:31.204Z,23.60
2018-05-15T09:52:58.729Z,23.70
2018-05-15T09:55:27.044Z,24.00
2018-05-15T09:57:54.578Z,23.90
2018-05-15T10:00:27.904Z,24.10
2018-05-15T10:02:55.429Z,24.20
2018-05-15T10:05:22.981Z,24.40
2018-05-15T10:07:51.324Z,24.60
2018-05-15T10:10:18.848Z,24.60
2018-05-15T10:12:46.379Z,24.80
2018-05-15T10:15:14.696Z,25.00
2018-05-15T10:17:42.218Z,25.00
2018-05-15T10:20:10.536Z,25.30
2018-05-15T10:22:38.069Z,25.20
2018-05-15T10:25:05.622Z,25.30
2018-05-15T10:27:33.153Z,25.40
2018-05-15T10:30:00.759Z,25.50
2018-05-15T10:32:28.243Z,25.70
2018-05-15T10:34:55.792Z,25.80
2018-05-15T10:37:23.371Z,25.90
2018-05-15T10:39:50.893Z,26.10
2018-05-15T10:42:18.413Z,26.20
2018-05-15T10:44:45.969Z,26.30
2018-05-15T10:47:13.489Z,26.30
2018-05-15T10:49:41.042Z,26.40
2018-05-15T10:52:08.573Z,26.50
2018-05-15T10:54:36.884Z,26.70
2018-05-15T10:57:04.400Z,26.70
2018-05-15T10:59:32.779Z,27.00
2018-05-15T11:02:00.264Z,26.90
2018-05-15T11:04:27.816Z,27.20
2018-05-15T11:06:56.105Z,27.40
2018-05-15T11:09:23.658Z,27.40
2018-05-15T11:11:51.213Z,27.60
2018-05-15T11:14:18.748Z,27.70
2018-05-15T11:16:46.301Z,27.70
2018-05-15T11:19:25.715Z,27.80
2018-05-15T11:22:05.068Z,27.90
2018-05-15T11:24:45.355Z,27.70
2018-05-15T11:27:13.646Z,27.50
2018-05-15T11:29:41.930Z,27.30
2018-05-15T11:32:09.492Z,27.30
2018-05-15T11:34:37.020Z,27.30
2018-05-15T11:37:05.345Z,27.20
2018-05-15T11:39:32.873Z,27.10
2018-05-15T11:42:01.193Z,27.40
2018-05-15T11:44:28.709Z,27.40
2018-05-15T11:46:57.041Z,28.10
2018-05-15T11:49:26.273Z,28.10
2018-05-15T11:51:54.184Z,28.30
2018-05-15T11:54:22.447Z,28.50
2018-05-15T11:56:50.031Z,28.50
2018-05-15T11:59:17.556Z,28.20
2018-05-15T12:01:45.876Z,27.40
2018-05-15T12:04:13.405Z,27.40
2018-05-15T12:06:40.963Z,27.00
2018-05-15T12:09:08.508Z,26.70
2018-05-15T12:11:36.832Z,26.40
2018-05-15T12:14:04.355Z,26.30
2018-05-15T12:16:32.677Z,26.30
2018-05-15T12:19:00.199Z,26.30
2018-05-15T12:21:27.748Z,26.30
2018-05-15T12:23:56.810Z,26.40
2018-05-15T12:26:24.364Z,26.40
2018-05-15T12:28:51.893Z,26.30
2018-05-15T12:31:19.442Z,26.20
2018-05-15T12:33:46.969Z,26.20
2018-05-15T12:36:14.528Z,26.20
2018-05-15T12:38:42.061Z,26.10
2018-05-15T12:41:09.696Z,26.10
2018-05-15T12:43:37.179Z,26.00
2018-05-15T12:46:04.733Z,25.90
2018-05-15T12:48:32.303Z,25.90
2018-05-15T12:50:59.844Z,25.80
2018-05-15T12:53:27.374Z,25.80
2018-05-15T12:55:55.697Z,25.70
2018-05-15T12:58:23.229Z,25.70
2018-05-15T13:00:50.754Z,25.70
2018-05-15T13:03:19.077Z,26.30
2018-05-15T13:05:46.607Z,26.20
2018-05-15T13:08:14.924Z,27.30
2018-05-15T13:10:42.448Z,27.20
2018-05-15T13:13:09.999Z,27.70
2018-05-15T13:15:38.292Z,27.90
2018-05-15T13:18:05.843Z,27.80
2018-05-15T13:20:34.133Z,27.70
2018-05-15T13:23:01.736Z,27.60
2018-05-15T13:25:29.240Z,27.50
2018-05-15T13:27:57.568Z,27.30
2018-05-15T13:30:25.091Z,27.20
2018-05-15T13:32:52.644Z,27.20
2018-05-15T13:35:20.946Z,27.60
2018-05-15T13:37:48.512Z,27.60
2018-05-15T13:40:16.037Z,27.60
2018-05-15T13:42:44.362Z,27.30
2018-05-15T13:45:11.891Z,27.30
2018-05-15T13:47:39.445Z,27.20
2018-05-15T13:50:06.973Z,27.10
2018-05-15T13:52:34.529Z,27.00
2018-05-15T13:55:02.051Z,26.80
2018-05-15T13:57:29.613Z,26.70
2018-05-15T13:59:57.142Z,26.60
2018-05-15T14:02:24.702Z,26.60
2018-05-15T14:04:52.293Z,26.40
2018-05-15T14:07:19.846Z,26.50
2018-05-15T14:09:47.370Z,26.90
2018-05-15T14:12:15.690Z,27.90
2018-05-15T14:14:43.223Z,27.80
2018-05-15T14:17:10.780Z,28.30
2018-05-15T14:19:38.314Z,28.70
2018-05-15T14:22:05.888Z,29.00
2018-05-15T14:24:34.237Z,29.30
2018-05-15T14:27:01.773Z,29.20
2018-05-15T14:29:29.300Z,29.30
2018-05-15T14:31:56.844Z,29.40
2018-05-15T14:34:25.132Z,29.60
2018-05-15T14:36:52.682Z,29.50
2018-05-15T14:39:21.008Z,29.60
2018-05-15T14:42:00.301Z,29.50
2018-05-15T14:44:28.617Z,29.80
2018-05-15T14:46:56.141Z,29.80
2018-05-15T14:49:23.703Z,29.70
2018-05-15T14:51:51.996Z,29.20
2018-05-15T14:54:19.549Z,29.10
2018-05-15T14:56:47.073Z,28.90
2018-05-15T14:59:14.622Z,28.50
2018-05-15T15:01:42.149Z,28.30
2018-05-15T15:04:09.705Z,28.20
2018-05-15T15:06:37.232Z,28.10
2018-05-15T15:09:06.341Z,28.30
2018-05-15T15:11:33.868Z,28.20
2018-05-15T15:14:01.421Z,28.50
2018-05-15T15:16:28.943Z,28.80
2018-05-15T15:18:56.498Z,29.10
2018-05-15T15:21:24.025Z,29.30
2018-05-15T15:23:52.346Z,29.40
2018-05-15T15:26:19.868Z,29.40
2018-05-15T15:28:47.420Z,29.50
2018-05-15T15:31:15.709Z,29.20
2018-05-15T15:33:44.032Z,29.20
2018-05-15T15:36:11.560Z,29.10
2018-05-15T15:38:39.113Z,29.20
2018-05-15T15:41:06.645Z,29.30
2018-05-15T15:43:34.241Z,29.30
2018-05-15T15:46:02.514Z,29.30
2018-05-15T15:48:30.065Z,29.30
2018-05-15T15:50:58.357Z,29.20
2018-05-15T15:53:25.917Z,29.10
2018-05-15T15:55:53.486Z,29.20
2018-05-15T15:58:21.036Z,29.40
2018-05-15T16:00:48.564Z,29.50
2018-05-15T16:03:16.120Z,29.50
2018-05-15T16:05:43.640Z,29.40
2018-05-15T16:08:11.192Z,29.30
2018-05-15T16:10:38.749Z,29.30
2018-05-15T16:13:06.272Z,29.30
2018-05-15T16:15:34.641Z,29.40
2018-05-15T16:18:02.140Z,29.30
2018-05-15T16:20:29.701Z,29.20
2018-05-15T16:22:57.228Z,29.20
2018-05-15T16:25:25.553Z,29.00
2018-05-15T16:27:53.077Z,28.90
2018-05-15T16:30:21.401Z,28.70
2018-05-15T16:32:48.932Z,28.70
2018-05-15T16:35:16.488Z,28.60
2018-05-15T16:37:44.098Z,28.50
2018-05-15T16:40:11.596Z,28.30
2018-05-15T16:42:39.894Z,28.00
2018-05-15T16:45:07.453Z,28.00
2018-05-15T16:47:34.986Z,27.90
2018-05-15T16:50:03.308Z,27.80
2018-05-15T16:52:30.845Z,27.70
2018-05-15T16:54:59.192Z,27.80
2018-05-15T16:57:26.724Z,27.70
2018-05-15T16:59:55.063Z,28.00
2018-05-15T17:02:22.592Z,27.90
2018-05-15T17:04:50.148Z,28.00
2018-05-15T17:07:17.677Z,28.00
2018-05-15T17:09:45.228Z,28.10
2018-05-15T17:12:12.748Z,28.10
2018-05-15T17:14:41.065Z,28.10
2018-05-15T17:17:08.585Z,28.10
2018-05-15T17:19:36.899Z,28.00
2018-05-15T17:22:04.421Z,28.00
2018-05-15T17:24:32.809Z,28.30
2018-05-15T17:27:01.105Z,28.40
2018-05-15T17:29:28.656Z,28.40
2018-05-15T17:31:56.183Z,28.60
2018-05-15T17:34:23.741Z,28.90
2018-05-15T17:36:51.267Z,29.30
2018-05-15T17:39:18.819Z,29.50
2018-05-15T17:41:46.349Z,29.70
2018-05-15T17:44:13.877Z,29.60
2018-05-15T17:46:41.429Z,29.70
2018-05-15T17:49:08.949Z,29.70
2018-05-15T17:51:36.497Z,29.60
2018-05-15T17:54:04.032Z,29.20
2018-05-15T17:56:32.353Z,28.60
2018-05-15T17:58:59.885Z,28.60
2018-05-15T18:01:27.442Z,28.40
2018-05-15T18:03:55.732Z,27.90
2018-05-15T18:06:23.280Z,27.80
2018-05-15T18:08:50.819Z,27.60
2018-05-15T18:11:18.383Z,27.40
2018-05-15T18:13:46.681Z,27.10
2018-05-15T18:16:14.236Z,27.00
2018-05-15T18:18:42.542Z,26.70
2018-05-15T18:21:10.150Z,26.70
2018-05-15T18:23:37.637Z,26.60
2018-05-15T18:26:05.956Z,26.40
2018-05-15T18:28:33.481Z,26.30
2018-05-15T18:31:01.097Z,26.30
2018-05-15T18:33:28.628Z,26.20
2018-05-15T18:35:56.185Z,26.00
2018-05-15T18:38:23.720Z,25.90
2018-05-15T18:40:51.272Z,25.80
2018-05-15T18:43:19.564Z,25.50
2018-05-15T18:45:47.117Z,25.50
2018-05-15T18:48:15.412Z,25.20
2018-05-15T18:50:42.960Z,25.20
2018-05-15T18:53:10.479Z,25.10
2018-05-15T18:55:38.032Z,25.00
2018-05-15T18:58:05.649Z,24.90
2018-05-15T19:00:33.145Z,24.80
2018-05-15T19:03:00.672Z,24.70
2018-05-15T19:05:28.224Z,24.50
2018-05-15T19:07:56.800Z,24.40
2018-05-15T19:10:25.216Z,24.00
2018-05-15T19:12:52.742Z,24.00
2018-05-15T19:15:20.300Z,23.90
2018-05-15T19:17:47.833Z,23.70
2018-05-15T19:20:15.367Z,23.60
2018-05-15T19:22:42.922Z,23.50
2018-05-15T19:25:10.447Z,23.50
2018-05-15T19:27:38.076Z,23.40
2018-05-15T19:30:05.605Z,23.30
2018-05-15T19:32:38.978Z,23.10
2018-05-15T19:35:07.357Z,23.00
2018-05-15T19:37:34.928Z,22.90
2018-05-15T19:40:08.049Z,22.80
2018-05-15T19:42:35.615Z,22.80
2018-05-15T19:45:03.860Z,22.70
2018-05-15T19:47:31.514Z,22.60
2018-05-15T19:49:59.033Z,22.50
2018-05-15T19:52:27.352Z,22.30
2018-05-15T19:54:54.878Z,22.30
2018-05-15T19:57:23.192Z,22.30
2018-05-15T19:59:50.722Z,22.20
2018-05-15T20:02:18.285Z,22.20
2018-05-15T20:04:46.573Z,22.10
2018-05-15T20:07:14.129Z,22.00
2018-05-15T20:09:41.654Z,22.00
2018-05-15T20:12:09.216Z,21.90
2018-05-15T20:14:37.529Z,21.80
2018-05-15T20:17:05.081Z,21.80
2018-05-15T20:19:33.369Z,21.80
2018-05-15T20:22:00.931Z,21.70
2018-05-15T20:24:28.501Z,21.70
2018-05-15T20:26:56.058Z,21.70
2018-05-15T20:29:23.581Z,21.60
2018-05-15T20:31:51.905Z,21.50
2018-05-15T20:34:19.432Z,21.50
2018-05-15T20:36:47.754Z,21.30
2018-05-15T20:39:15.288Z,21.30
2018-05-15T20:41:42.848Z,21.20
2018-05-15T20:44:10.383Z,21.20
2018-05-15T20:46:38.702Z,21.00
2018-05-15T20:49:06.240Z,20.90
2018-05-15T20:51:33.795Z,20.90
2018-05-15T20:54:02.097Z,20.80
2018-05-15T20:56:29.653Z,20.80
2018-05-15T20:58:57.179Z,20.80
2018-05-15T21:01:25.509Z,20.60
2018-05-15T21:03:53.040Z,20.60
2018-05-15T21:06:20.623Z,20.60
2018-05-15T21:08:48.152Z,20.50
2018-05-15T21:11:16.440Z,20.30
2018-05-15T21:13:43.993Z,20.30
2018-05-15T21:16:11.525Z,20.30
2018-05-15T21:18:39.090Z,20.20
2018-05-15T21:21:07.380Z,20.10
2018-05-15T21:23:35.701Z,20.00
2018-05-15T21:26:03.234Z,20.00
2018-05-15T21:28:30.796Z,19.90
2018-05-15T21:30:58.327Z,19.90
2018-05-15T21:33:26.649Z,19.80
2018-05-15T21:35:54.176Z,19.70
2018-05-15T21:38:22.508Z,19.60
2018-05-15T21:40:50.037Z,19.50
2018-05-15T21:43:17.604Z,19.50
2018-05-15T21:45:45.128Z,19.50
2018-05-15T21:48:13.441Z,19.40
2018-05-15T21:50:40.960Z,19.30
2018-05-15T21:53:09.282Z,19.30
2018-05-15T21:55:36.813Z,19.20
2018-05-15T21:58:05.140Z,19.30
2018-05-15T22:00:32.674Z,19.20
2018-05-15T22:03:00.230Z,19.20
2018-05-15T22:05:27.765Z,19.20
2018-05-15T22:07:56.108Z,19.00
2018-05-15T22:10:23.624Z,19.00
2018-05-15T22:13:03.061Z,19.00
2018-05-15T22:15:42.548Z,18.90
2018-05-15T22:18:21.862Z,18.80
2018-05-15T22:21:01.134Z,18.70
2018-05-15T22:23:28.200Z,18.60
2018-05-15T22:25:56.496Z,18.40
2018-05-15T22:28:24.053Z,18.40
2018-05-15T22:30:51.588Z,18.40
2018-05-15T22:33:19.152Z,18.30
2018-05-15T22:35:47.440Z,18.20
2018-05-15T22:38:15.761Z,18.10
2018-05-15T22:40:43.297Z,18.00
2018-05-15T22:43:10.852Z,18.00
2018-05-15T22:45:38.383Z,17.90
2018-05-15T22:48:06.750Z,17.80
2018-05-15T22:50:34.372Z,17.70
2018-05-15T22:53:01.938Z,17.60
2018-05-15T22:55:29.463Z,17.50
2018-05-15T22:57:57.790Z,17.40
2018-05-15T23:00:25.333Z,17.30
2018-05-15T23:02:52.902Z,17.30
2018-05-15T23:05:20.484Z,17.30
2018-05-15T23:07:48.037Z,17.20
2018-05-15T23:10:15.569Z,17.20
2018-05-15T23:12:43.124Z,17.10
2018-05-15T23:15:10.657Z,17.20
2018-05-15T23:17:39.007Z,17.20
2018-05-15T23:20:06.533Z,17.10
2018-05-15T23:22:41.812Z,17.20
2018-05-15T23:25:09.332Z,17.20
2018-05-15T23:27:36.851Z,17.20
2018-05-15T23:30:05.226Z,17.20
2018-05-15T23:32:32.774Z,17.10
2018-05-15T23:35:00.324Z,17.10
2018-05-15T23:37:27.849Z,17.10
2018-05-15T23:39:55.394Z,17.10
2018-05-15T23:42:22.920Z,17.00
2018-05-15T23:44:50.464Z,17.00
2018-05-15T23:47:17.985Z,16.90
2018-05-15T23:49:45.546Z,16.90
2018-05-15T23:52:13.072Z,16.90
2018-05-15T23:54:41.388Z,16.90
2018-05-15T23:57:08.917Z,16.80
2018-05-15T23:59:37.289Z,16.80
